Nearby METAR Reports

 

KHOT - Hot Springs, Arkansas, USA
Distance from station: W 8mi, 14km
Updated: 01/29/2020 7:53am
Overcast
Overcast
 Wind from NNE
Wind: NNE 3 mph , 6 km/h
Temperature: 45°F , 7°C
Dew Point: 39°F , 4°C
Humidity: 81%
Barometer: 29.99 inHg , 1015.6 hPa
Clouds: Overcast
Visibility: 8 miles , 13 km
Cloud details: Overcast 800 ft
2020/01/29 13:53 KHOT 291353Z AUTO 03003KT 8SM OVC008 07/04 A2999 RMK AO2 SLP155 T00670044
KMWT - Mount Ida, Arkansas, USA
Distance from station: W 36mi, 58km
Updated: 01/29/2020 8:53am
Overcast
Overcast
 Wind from calm
Wind: Calm
Temperature: 43°F , 6°C
Dew Point: 39°F , 4°C
Humidity: 87%
Barometer: 29.99 inHg , 1015.6 hPa
Clouds: Overcast
Visibility: 9 miles , 14 km
Cloud details: Overcast 900 ft
2020/01/29 14:53 KMWT 291453Z AUTO 00000KT 9SM OVC009 06/04 A2999 RMK AO2 CIG 005V010 SLP159 60001 T00560044 51024 $
 
KLIT - Little Rock, Arkansas, USA
Distance from station: ENE 45mi, 73km
Updated: 01/29/2020 8:53am
Mist, Overcast
Mist, Overcast
 Wind from NNE
Wind: NNE 5 mph , 7 km/h
Temperature: 41°F , 5°C
Wind Chill: 38°F , 3°C
Dew Point: 39°F , 4°C
Humidity: 93%
Barometer: 30.03 inHg , 1016.9 hPa
Summary: Mist
Clouds: Overcast
Visibility: 4 miles , 6 km
Cloud details: Overcast 600 ft
2020/01/29 14:53 KLIT 291453Z 03004KT 4SM BR OVC006 05/04 A3003 RMK AO2 DZE17 SLP171 P0000 60001 T00500039 51017 $
KLRF - Little Rock Afb, Arkansas, USA
Distance from station: NE 56mi, 89km
Updated: 01/29/2020 7:56am
Overcast
Overcast
 Wind from NE
Wind: NE 10 mph , 17 km/h
Temperature: 41°F , 5°C
Wind Chill: 35°F , 2°C
Dew Point: 39°F , 4°C
Humidity: 93%
Barometer: 30.01 inHg , 1016.3 hPa
Clouds: Overcast
Visibility: 10 miles , 16 km
Cloud details: Overcast 600 ft
2020/01/29 13:56 KLRF 291356Z AUTO 05009KT 10SM OVC006 05/04 A3001 RMK AO2 SLP167 T00450041 $